< < Back
Terminal Aerodrome Forecast


Current Version              Previous Versions:   1  2  3  4  5  6  7  8  9  

Terminal Aerodrome Forecast

047
FTUS42 KMLB 261618 AAB
TAFMCO
TAF AMD
KMCO 261618Z 2616/2712 04015G24KT P6SM SCT025 SCT150 SCT250
     FM261900 07012G18KT P6SM VCSH SCT035 BKN060
     FM270000 04006KT P6SM SCT030=

Latest METAR

996
SAUS70 KWBC 261658
MTRMCO
METAR KMCO 261653Z 06016KT 10SM SCT026 SCT075 BKN300 32/24 A2998 RMK AO2
SLP152 T03220239


USA.gov is the U.S. government's official web portal to all federal, state and local government web resources and services.